• Join FlightAware (Why Join?)
  • Login
  • US Flag 
07:20AM EDT


 

Airport Tracker/Info


-or-


 

Live Flight TrackerFlight Track Log ✈ AWE1913 ✈ 12-Apr-2013 ✈ KDTW - KPHL

Flight Track Log - Related Links

Times and Time Zones

All times are in EDT time to prevent confusion due to time zone crossing. See the AWE1913 flight status page for this flight to view local times or setup timezone preferences in your user account.

Time Position Orientation Groundspeed Altitude Reporting Facility
EDT Latitude Longitude Course Direction KTS MPH feet Rate Location/Type
07:23AM 42.2350 -83.3306 90° East 147 169 1,900  Level FAA TRACON SMA TRACON (SMA)
07:23AM 42.2483 -83.3186 34° Northeast 163 188 2,500 1,320 Climbing FAA TRACON SMA TRACON (SMA)
07:24AM 42.2611 -83.3081 31° Northeast 191 220 2,800 1,020 Climbing FAA TRACON SMA TRACON (SMA)
07:24AM 42.2792 -83.2928 32° Northeast 228 262 3,200 2,400 Climbing FAA TRACON SMA TRACON (SMA)
07:24AM 42.2981 -83.2747 35° Northeast 233 268 4,400 3,600 Climbing FAA TRACON SMA TRACON (SMA)
07:25AM 42.3156 -83.2564 38° Northeast 224 258 5,800 2,580 Climbing FAA TRACON SMA TRACON (SMA)
07:25AM 42.3250 -83.2292 65° Northeast 247 284 6,300 2,160 Climbing FAA TRACON SMA TRACON (SMA)
07:25AM 42.3222 -83.2008 98° East 249 287 7,100 2,280 Climbing FAA TRACON SMA TRACON (SMA)
07:26AM 42.2167 -82.9367 90° East  Level FlightAware Approximate
07:26AM 42.3178 -83.1717 102° East 252 290 7,700  Level FAA TRACON SMA TRACON (SMA)
07:26AM 42.3136 -83.1381 100° East 293 337 8,100 1,800 Climbing FAA TRACON SMA TRACON (SMA)
07:26AM 42.3097 -83.1028 98° East 308 354 8,900 2,520 Climbing FAA TRACON SMA TRACON (SMA)
07:27AM 42.2167 -82.7966 90° East  Level FlightAware Approximate
07:27AM 42.3039 -83.0586 100° East 310 357 9,800  Level FAA TRACON SMA TRACON (SMA)
07:27AM 42.2992 -83.0225 100° East 315 362 10,100 420 Climbing FAA TRACON SMA TRACON (SMA)
07:27AM 42.2947 -82.9861 99° East 317 365 10,100 540 Level FAA TRACON SMA TRACON (SMA)
07:28AM 42.2167 -82.6566 90° East  Level FlightAware Approximate
07:28AM 42.2889 -82.9403 100° East 320 368 10,500  Level FAA TRACON SMA TRACON (SMA)
07:28AM 42.2839 -82.9019 100° East 332 382 10,900 1,320 Climbing FAA TRACON SMA TRACON (SMA)
07:28AM 42.2778 -82.8592 101° East 369 425 11,400 3,060 Climbing FAA TRACON SMA TRACON (SMA)
07:29AM 42.2719 -82.8072 99° East 360 414 13,000 4,440 Climbing FAA TRACON SMA TRACON (SMA)
07:29AM 42.2672 -82.7678 99° East 348 400 14,300 3,000 Climbing FAA TRACON SMA TRACON (SMA)
07:29AM 42.2619 -82.7283 100° East 348 400 15,000 1,740 Climbing FAA TRACON SMA TRACON (SMA)
07:30AM 42.2550 -82.6767 100° East 359 413 15,500 1,800 Climbing FAA TRACON SMA TRACON (SMA)
07:30AM 42.2494 -82.6339 100° East 368 423 16,200 2,220 Climbing FAA TRACON SMA TRACON (SMA)
07:30AM 42.2436 -82.5903 100° East 376 433 17,000 3,000 Climbing FAA TRACON SMA TRACON (SMA)
07:31AM 42.2367 -82.5356 100° East 383 441 18,200 3,000 Climbing FAA TRACON SMA TRACON (SMA)
07:31AM 42.2308 -82.4914 100° East 386 444 19,000 2,400 Climbing FAA TRACON SMA TRACON (SMA)
07:31AM 42.2253 -82.4472 100° East 387 445 19,800 2,460 Climbing FAA TRACON SMA TRACON (SMA)
07:32AM 42.2197 -82.3917 98° East 390 449 20,600 2,160 Climbing FAA TRACON SMA TRACON (SMA)
07:32AM 42.2175 -82.3464 94° East 391 450 21,300 2,100 Climbing FAA TRACON SMA TRACON (SMA)
07:32AM 42.2142 -82.3017 96° East 391 450 22,000 2,400 Climbing FAA TRACON SMA TRACON (SMA)
07:33AM 42.2119 -82.2453 93° East 392 451 22,900 1,620 Climbing FAA TRACON SMA TRACON (SMA)
07:33AM 42.2092 -82.1997 95° East 394 453 23,100 720 Climbing FAA TRACON SMA TRACON (SMA)
07:33AM 42.2075 -82.1767 96° East 397 457 23,400 300 Climbing FAA TRACON SMA TRACON (SMA)
07:34AM 42.2075 -82.1767 90° East 397 457 23,400 2,400 Level FAA TRACON SMA TRACON (SMA)
07:35AM 42.1731 -81.9222 100° East 387 445 27,200 2,700 Climbing Cleveland Center
07:36AM 42.1011 -81.8314 137° Southeast 342 394 28,600 1,560 Climbing Cleveland Center
07:37AM 42.0228 -81.7458 141° Southeast 358 412 30,400 1,920 Climbing Cleveland Center
07:38AM 41.9467 -81.6581 139° Southeast 364 419 32,500 1,800 Climbing Cleveland Center
07:39AM 41.8744 -81.5731 139° Southeast 353 406 34,000 720 Climbing Cleveland Center
07:40AM 41.8125 -81.4997 139° Southeast 347 399 34,000  Level Cleveland Center
07:41AM 41.7381 -81.4181 141° Southeast 347 399 34,000  Level Cleveland Center
07:42AM 41.6614 -81.3308 140° Southeast 354 407 34,100 300 Climbing Cleveland Center
07:43AM 41.5828 -81.2383 139° Southeast 369 425 34,600 420 Climbing Cleveland Center
07:44AM 41.4939 -81.1319 138° Southeast 379 436 35,000 180 Climbing Cleveland Center
07:45AM 41.4172 -81.0261 134° Southeast 386 444 35,000  Level Cleveland Center
07:46AM 41.3403 -80.9178 133° Southeast 395 455 35,000 120 Level Cleveland Center
07:47AM 41.2636 -80.8097 133° Southeast 400 460 35,300 540 Climbing Cleveland Center
07:48AM 41.1844 -80.7044 135° Southeast 400 460 36,100 600 Climbing Cleveland Center
07:49AM 41.1158 -80.6081 133° Southeast 400 460 36,500 420 Climbing Cleveland Center
07:50AM 41.0364 -80.4978 134° Southeast 400 460 37,000 240 Climbing Cleveland Center
07:51AM 40.9572 -80.3878 134° Southeast 405 466 37,000  Level Cleveland Center
07:52AM 40.8756 -80.2783 135° Southeast 405 466 37,000  Level Cleveland Center
07:53AM 40.8022 -80.1525 128° Southeast 418 481 37,000  Level Cleveland Center
07:54AM 40.7494 -79.9994 114° Southeast 439 505 37,000  Level Cleveland Center
07:55AM 40.6944 -79.8492 116° Southeast 444 511 37,000  Level Cleveland Center
07:56AM 40.6411 -79.7019 115° Southeast 449 517 37,000 -120 Level Cleveland Center
07:57AM 40.5858 -79.5553 116° Southeast 444 511 36,800 -540 Descending Cleveland Center
07:58AM 40.5344 -79.4139 116° Southeast 444 511 36,000 -900 Descending Cleveland Center
07:59AM 40.4828 -79.2700 115° Southeast 439 505 35,100 -900 Descending Cleveland Center
08:00AM 40.4414 -79.1208 110° East 434 499 34,200 -960 Descending Cleveland Center
08:01AM 40.4183 -78.9606 101° East 434 499 33,200 -960 Descending Cleveland Center
08:02AM 40.4158 -78.7942 91° East 446 513 32,300 -1,020 Descending Cleveland Center
08:04AM 40.4075 -78.4256 92° East 485 558 30,100 -1,260 Descending New York Center
08:05AM 40.4044 -78.2453 91° East 485 558 28,400 -2,340 Descending New York Center
08:06AM 40.3986 -78.0675 92° East 485 558 25,500 -1,800 Descending New York Center
08:07AM 40.3819 -77.8967 97° East 480 552 24,900 -1,440 Descending New York Center
08:08AM 40.3689 -77.7319 96° East 473 544 22,700 -1,980 Descending New York Center
08:09AM 40.3533 -77.5694 97° East 460 529 21,000 -900 Descending New York Center
08:10AM 40.3375 -77.4100 97° East 446 513 21,000 -420 Level New York Center
08:11AM 40.3194 -77.2475 98° East 446 513 20,200 -1,860 Descending New York Center
08:12AM 40.3014 -77.0797 98° East 435 501 17,400 -1,680 Descending New York Center
08:13AM 40.2714 -76.9356 105° East 415 478 16,900 -960 Descending New York Center
08:14AM 40.2422 -76.8133 107° East 401 461 15,500 -2,040 Descending New York Center
08:15AM 40.2094 -76.6772 107° East 390 449 13,000 -2,280 Descending New York Center
08:16AM 40.1769 -76.5331 106° East 384 442 11,000 -900 Descending New York Center
08:18AM 40.1358 -76.3567 107° East 374 430 11,000  Level FAA TRACON SMA TRACON (SMA)
08:18AM 40.1258 -76.3158 108° East 372 428 11,000  Level FAA TRACON SMA TRACON (SMA)
08:18AM 40.1186 -76.2756 103° East 371 427 11,000  Level FAA TRACON SMA TRACON (SMA)
08:19AM 40.1158 -76.2350 95° East 357 411 11,000  Level FAA TRACON SMA TRACON (SMA)
08:19AM 40.1131 -76.1878 94° East 334 384 11,000 120 Level FAA TRACON SMA TRACON (SMA)
08:19AM 40.1111 -76.1519 94° East 328 377 11,100 -480 Climbing FAA TRACON SMA TRACON (SMA)
08:20AM 40.1089 -76.1156 95° East 318 366 10,700 -1,380 Descending FAA TRACON SMA TRACON (SMA)
08:20AM 40.1047 -76.0728 97° East 316 364 10,200 -1,200 Descending FAA TRACON SMA TRACON (SMA)
08:20AM 40.1025 -76.0378 95° East 315 362 9,900 -1,200 Descending FAA TRACON SMA TRACON (SMA)
08:21AM 40.1000 -76.0036 95° East 312 359 9,400 -1,380 Descending FAA TRACON SMA TRACON (SMA)
08:21AM 40.0972 -75.9611 95° East 307 353 9,000 -1,380 Descending FAA TRACON SMA TRACON (SMA)
08:21AM 40.0947 -75.9278 96° East 297 342 8,500 -1,680 Descending FAA TRACON SMA TRACON (SMA)
08:22AM 40.0925 -75.8964 95° East 293 337 7,900 -1,680 Descending FAA TRACON SMA TRACON (SMA)
08:22AM 40.0900 -75.8558 95° East 293 337 7,400 -1,500 Descending FAA TRACON SMA TRACON (SMA)
08:22AM 40.0875 -75.8228 96° East 293 337 6,900 -1,500 Descending FAA TRACON SMA TRACON (SMA)
08:23AM 40.0850 -75.7908 96° East 291 335 6,400 -1,200 Descending FAA TRACON SMA TRACON (SMA)
08:23AM 40.0825 -75.7508 95° East 288 331 6,100 -600 Descending FAA TRACON SMA TRACON (SMA)
08:23AM 40.0803 -75.7175 95° East 286 329 6,000 -180 Descending FAA TRACON SMA TRACON (SMA)
08:24AM 40.0789 -75.6867 93° East 288 331 6,000  Level FAA TRACON SMA TRACON (SMA)
08:24AM 40.0769 -75.6467 94° East 286 329 6,000  Level FAA TRACON SMA TRACON (SMA)
08:24AM 40.0758 -75.6158 93° East 286 329 6,000  Level FAA TRACON SMA TRACON (SMA)
08:25AM 40.0744 -75.5831 93° East 285 328 6,000  Level FAA TRACON SMA TRACON (SMA)
08:25AM 40.0725 -75.5447 94° East 284 327 6,000  Level FAA TRACON SMA TRACON (SMA)
08:25AM 40.0711 -75.5128 93° East 285 328 6,000  Level FAA TRACON SMA TRACON (SMA)
08:26AM 40.0697 -75.4819 93° East 267 307 6,000  Level FAA TRACON SMA TRACON (SMA)
08:26AM 40.0686 -75.4556 93° East 248 285 6,000  Level FAA TRACON SMA TRACON (SMA)
08:26AM 40.0608 -75.4283 110° East 201 231 6,000  Level FAA TRACON SMA TRACON (SMA)
08:27AM 40.0483 -75.4158 143° Southeast 183 211 6,000  Level FAA TRACON SMA TRACON (SMA)
08:27AM 40.0350 -75.4114 166° South 168 193 6,000  Level FAA TRACON SMA TRACON (SMA)
08:27AM 40.0169 -75.4056 166° South 169 194 6,000  Level FAA TRACON SMA TRACON (SMA)
08:28AM 40.0031 -75.4008 165° South 167 192 6,000  Level FAA TRACON SMA TRACON (SMA)
08:28AM 39.9886 -75.3967 168° South 169 194 6,000  Level FAA TRACON SMA TRACON (SMA)
08:28AM 39.9708 -75.3911 167° South 169 194 6,000  Level FAA TRACON SMA TRACON (SMA)
08:29AM 39.9569 -75.3869 167° South 169 194 6,000  Level FAA TRACON SMA TRACON (SMA)
08:29AM 39.9425 -75.3839 171° South 166 191 6,000  Level FAA TRACON SMA TRACON (SMA)
08:29AM 39.9306 -75.3994 225° Southwest 171 197 6,000  Level FAA TRACON SMA TRACON (SMA)
08:30AM 39.9264 -75.4194 255° West 182 209 6,000  Level FAA TRACON SMA TRACON (SMA)
08:30AM 39.9225 -75.4378 255° West 171 197 6,000 -480 Level FAA TRACON SMA TRACON (SMA)
08:30AM 39.9178 -75.4586 254° West 156 180 5,700 -960 Descending FAA TRACON SMA TRACON (SMA)
08:31AM 39.9150 -75.4747 257° West 146 168 5,400 -900 Descending FAA TRACON SMA TRACON (SMA)
08:31AM 39.9100 -75.4906 248° West 149 171 5,100 -600 Descending FAA TRACON SMA TRACON (SMA)
08:31AM 39.9056 -75.5097 253° West 150 173 5,000 -180 Descending FAA TRACON SMA TRACON (SMA)
08:32AM 39.9017 -75.5269 254° West 150 173 5,000  Level FAA TRACON SMA TRACON (SMA)
08:32AM 39.8986 -75.5436 257° West 151 174 5,000  Level FAA TRACON SMA TRACON (SMA)
08:32AM 39.8944 -75.5631 254° West 145 167 5,000  Level FAA TRACON SMA TRACON (SMA)
08:33AM 39.8917 -75.5781 256° West 143 165 5,000  Level FAA TRACON SMA TRACON (SMA)
08:33AM 39.8881 -75.5936 253° West 143 165 5,000  Level FAA TRACON SMA TRACON (SMA)
08:33AM 39.8839 -75.6131 254° West 144 166 5,000  Level FAA TRACON SMA TRACON (SMA)
08:34AM 39.8794 -75.6258 246° West 146 168 5,000  Level FAA TRACON SMA TRACON (SMA)
08:34AM 39.8733 -75.6411 242° Southwest 133 153 5,000  Level FAA TRACON SMA TRACON (SMA)
08:34AM 39.8625 -75.6531 220° Southwest 131 151 5,000  Level FAA TRACON SMA TRACON (SMA)
08:35AM 39.8564 -75.6614 226° Southwest 126 145 5,000 -300 Level FAA TRACON SMA TRACON (SMA)
08:35AM 39.8453 -75.6681 205° Southwest 136 157 4,800 -900 Descending FAA TRACON SMA TRACON (SMA)
08:35AM 39.8303 -75.6603 158° South 154 177 4,400 -1,080 Descending FAA TRACON SMA TRACON (SMA)
08:36AM 39.8200 -75.6544 156° South 149 171 4,100 -900 Descending FAA TRACON SMA TRACON (SMA)
08:36AM 39.8103 -75.6394 130° Southeast 162 186 3,800 -1,200 Descending FAA TRACON SMA TRACON (SMA)
08:36AM 39.8008 -75.6211 124° Southeast 157 181 3,300 -1,080 Descending FAA TRACON SMA TRACON (SMA)
08:37AM 39.7969 -75.6033 106° East 178 205 3,100 -480 Descending FAA TRACON SMA TRACON (SMA)
08:37AM 39.7992 -75.5833 82° East 184 212 3,000 -180 Descending FAA TRACON SMA TRACON (SMA)
08:37AM 39.8033 -75.5581 78° East 189 217 3,000  Level FAA TRACON SMA TRACON (SMA)
08:38AM 39.8078 -75.5378 74° East 189 217 3,000  Level FAA TRACON SMA TRACON (SMA)
08:38AM 39.8122 -75.5178 74° East 188 216 3,000  Level FAA TRACON SMA TRACON (SMA)
08:38AM 39.8172 -75.4917 76° East 191 220 3,000  Level FAA TRACON SMA TRACON (SMA)
08:39AM 39.8203 -75.4717 79° East 195 224 3,000 -300 Level FAA TRACON SMA TRACON (SMA)
08:39AM 39.8258 -75.4486 73° East 198 228 2,800 -900 Descending FAA TRACON SMA TRACON (SMA)
08:39AM 39.8311 -75.4228 75° East 192 221 2,400 -1,080 Descending FAA TRACON SMA TRACON (SMA)
08:40AM 39.8339 -75.4053 78° East 173 199 2,100 -780 Descending FAA TRACON SMA TRACON (SMA)
08:40AM 39.8378 -75.3894 72° East 142 163 1,900 -600 Descending FAA TRACON SMA TRACON (SMA)